sensor_id;sensor_type;location;lat;lon;timestamp;P1;durP1;ratioP1;P2;durP2;ratioP2
22634;SDS011;11484;50.858;4.384;2024-01-30T00:02:16;7.28;;;4.20;;
22634;SDS011;11484;50.858;4.384;2024-01-30T00:04:42;6.38;;;4.10;;
22634;SDS011;11484;50.858;4.384;2024-01-30T00:07:07;6.05;;;4.28;;
22634;SDS011;11484;50.858;4.384;2024-01-30T00:09:33;6.55;;;4.20;;
22634;SDS011;11484;50.858;4.384;2024-01-30T00:11:59;4.85;;;3.97;;
22634;SDS011;11484;50.858;4.384;2024-01-30T00:14:25;6.30;;;4.03;;
22634;SDS011;11484;50.858;4.384;2024-01-30T00:16:51;7.45;;;4.50;;
22634;SDS011;11484;50.858;4.384;2024-01-30T00:19:17;7.72;;;4.45;;
22634;SDS011;11484;50.858;4.384;2024-01-30T00:21:42;6.97;;;4.47;;
22634;SDS011;11484;50.858;4.384;2024-01-30T00:24:08;7.10;;;4.68;;
22634;SDS011;11484;50.858;4.384;2024-01-30T00:26:34;6.15;;;4.20;;
22634;SDS011;11484;50.858;4.384;2024-01-30T00:29:00;6.55;;;4.25;;
22634;SDS011;11484;50.858;4.384;2024-01-30T00:31:26;6.80;;;4.10;;
22634;SDS011;11484;50.858;4.384;2024-01-30T00:33:51;7.88;;;4.45;;
22634;SDS011;11484;50.858;4.384;2024-01-30T00:36:17;7.18;;;4.47;;
22634;SDS011;11484;50.858;4.384;2024-01-30T00:38:43;8.88;;;4.88;;
22634;SDS011;11484;50.858;4.384;2024-01-30T00:41:08;6.63;;;4.45;;
22634;SDS011;11484;50.858;4.384;2024-01-30T00:43:35;7.65;;;4.15;;
22634;SDS011;11484;50.858;4.384;2024-01-30T00:46:01;9.25;;;4.40;;
22634;SDS011;11484;50.858;4.384;2024-01-30T00:48:26;8.68;;;4.50;;
22634;SDS011;11484;50.858;4.384;2024-01-30T00:50:52;5.72;;;4.18;;
22634;SDS011;11484;50.858;4.384;2024-01-30T00:53:18;5.18;;;3.85;;
22634;SDS011;11484;50.858;4.384;2024-01-30T00:55:44;6.70;;;4.35;;
22634;SDS011;11484;50.858;4.384;2024-01-30T00:58:09;5.95;;;3.90;;
22634;SDS011;11484;50.858;4.384;2024-01-30T01:00:35;6.38;;;4.13;;
22634;SDS011;11484;50.858;4.384;2024-01-30T01:03:01;8.60;;;3.95;;
22634;SDS011;11484;50.858;4.384;2024-01-30T01:05:27;7.03;;;4.60;;
22634;SDS011;11484;50.858;4.384;2024-01-30T01:07:52;5.82;;;3.85;;
22634;SDS011;11484;50.858;4.384;2024-01-30T01:10:18;7.07;;;4.80;;
22634;SDS011;11484;50.858;4.384;2024-01-30T01:12:45;7.72;;;3.97;;
22634;SDS011;11484;50.858;4.384;2024-01-30T01:15:11;6.28;;;4.07;;
22634;SDS011;11484;50.858;4.384;2024-01-30T01:17:38;4.88;;;3.63;;
22634;SDS011;11484;50.858;4.384;2024-01-30T01:20:04;7.70;;;4.25;;
22634;SDS011;11484;50.858;4.384;2024-01-30T01:22:35;6.28;;;4.15;;
22634;SDS011;11484;50.858;4.384;2024-01-30T01:25:03;6.55;;;4.03;;
22634;SDS011;11484;50.858;4.384;2024-01-30T01:27:32;7.05;;;4.07;;
22634;SDS011;11484;50.858;4.384;2024-01-30T01:29:59;7.32;;;4.22;;
22634;SDS011;11484;50.858;4.384;2024-01-30T01:32:25;6.18;;;4.20;;
22634;SDS011;11484;50.858;4.384;2024-01-30T01:34:54;8.70;;;4.20;;
22634;SDS011;11484;50.858;4.384;2024-01-30T01:37:19;4.80;;;3.80;;
22634;SDS011;11484;50.858;4.384;2024-01-30T01:39:47;5.60;;;4.10;;
22634;SDS011;11484;50.858;4.384;2024-01-30T01:42:12;6.10;;;4.07;;
22634;SDS011;11484;50.858;4.384;2024-01-30T01:44:38;6.57;;;4.03;;
22634;SDS011;11484;50.858;4.384;2024-01-30T01:47:04;5.60;;;3.88;;
22634;SDS011;11484;50.858;4.384;2024-01-30T01:49:30;6.40;;;4.00;;
22634;SDS011;11484;50.858;4.384;2024-01-30T01:51:56;6.97;;;4.10;;
22634;SDS011;11484;50.858;4.384;2024-01-30T01:54:23;5.85;;;3.90;;
22634;SDS011;11484;50.858;4.384;2024-01-30T01:56:53;6.72;;;4.57;;
22634;SDS011;11484;50.858;4.384;2024-01-30T01:59:20;6.60;;;3.78;;
22634;SDS011;11484;50.858;4.384;2024-01-30T02:01:47;5.72;;;3.75;;
22634;SDS011;11484;50.858;4.384;2024-01-30T02:04:16;5.10;;;3.95;;
22634;SDS011;11484;50.858;4.384;2024-01-30T02:06:42;9.05;;;4.00;;
22634;SDS011;11484;50.858;4.384;2024-01-30T02:09:08;7.65;;;4.28;;
22634;SDS011;11484;50.858;4.384;2024-01-30T02:11:34;7.50;;;3.83;;
22634;SDS011;11484;50.858;4.384;2024-01-30T02:14:03;5.85;;;4.22;;
22634;SDS011;11484;50.858;4.384;2024-01-30T02:16:30;6.22;;;4.10;;
22634;SDS011;11484;50.858;4.384;2024-01-30T02:18:58;5.38;;;3.80;;
22634;SDS011;11484;50.858;4.384;2024-01-30T02:21:24;8.85;;;4.05;;
22634;SDS011;11484;50.858;4.384;2024-01-30T02:23:50;5.40;;;4.20;;
22634;SDS011;11484;50.858;4.384;2024-01-30T02:26:17;5.55;;;3.58;;
22634;SDS011;11484;50.858;4.384;2024-01-30T02:28:43;5.38;;;3.85;;
22634;SDS011;11484;50.858;4.384;2024-01-30T02:31:09;6.90;;;4.32;;
22634;SDS011;11484;50.858;4.384;2024-01-30T02:33:34;6.43;;;4.05;;
22634;SDS011;11484;50.858;4.384;2024-01-30T02:36:03;6.63;;;4.28;;
22634;SDS011;11484;50.858;4.384;2024-01-30T02:38:29;5.88;;;3.70;;
22634;SDS011;11484;50.858;4.384;2024-01-30T02:40:55;5.25;;;3.60;;
22634;SDS011;11484;50.858;4.384;2024-01-30T02:43:21;6.50;;;4.13;;
22634;SDS011;11484;50.858;4.384;2024-01-30T02:45:50;7.85;;;4.10;;
22634;SDS011;11484;50.858;4.384;2024-01-30T02:48:16;6.72;;;3.97;;
22634;SDS011;11484;50.858;4.384;2024-01-30T02:50:41;7.25;;;4.22;;
22634;SDS011;11484;50.858;4.384;2024-01-30T02:53:07;6.60;;;4.03;;
22634;SDS011;11484;50.858;4.384;2024-01-30T02:55:33;8.73;;;4.40;;
22634;SDS011;11484;50.858;4.384;2024-01-30T02:57:58;6.15;;;3.95;;
22634;SDS011;11484;50.858;4.384;2024-01-30T03:00:24;7.07;;;3.72;;
22634;SDS011;11484;50.858;4.384;2024-01-30T03:02:50;7.68;;;3.88;;
22634;SDS011;11484;50.858;4.384;2024-01-30T03:05:16;6.55;;;3.85;;
22634;SDS011;11484;50.858;4.384;2024-01-30T03:07:41;7.03;;;4.22;;
22634;SDS011;11484;50.858;4.384;2024-01-30T03:10:07;8.35;;;4.00;;
22634;SDS011;11484;50.858;4.384;2024-01-30T03:12:33;6.05;;;3.90;;
22634;SDS011;11484;50.858;4.384;2024-01-30T03:14:59;6.93;;;3.90;;
22634;SDS011;11484;50.858;4.384;2024-01-30T03:17:24;7.05;;;3.92;;
22634;SDS011;11484;50.858;4.384;2024-01-30T03:19:50;6.68;;;4.35;;
22634;SDS011;11484;50.858;4.384;2024-01-30T03:22:16;8.13;;;4.55;;
22634;SDS011;11484;50.858;4.384;2024-01-30T03:24:42;5.03;;;3.92;;
22634;SDS011;11484;50.858;4.384;2024-01-30T03:27:08;6.20;;;4.22;;
22634;SDS011;11484;50.858;4.384;2024-01-30T03:29:34;6.28;;;3.95;;
22634;SDS011;11484;50.858;4.384;2024-01-30T03:32:00;6.10;;;4.07;;
22634;SDS011;11484;50.858;4.384;2024-01-30T03:34:25;6.38;;;4.60;;
22634;SDS011;11484;50.858;4.384;2024-01-30T03:36:51;6.47;;;4.20;;
22634;SDS011;11484;50.858;4.384;2024-01-30T03:39:16;6.78;;;4.70;;
22634;SDS011;11484;50.858;4.384;2024-01-30T03:41:42;9.05;;;4.63;;
22634;SDS011;11484;50.858;4.384;2024-01-30T03:44:09;5.40;;;4.38;;
22634;SDS011;11484;50.858;4.384;2024-01-30T03:46:35;8.32;;;4.13;;
22634;SDS011;11484;50.858;4.384;2024-01-30T03:49:00;5.55;;;3.95;;
22634;SDS011;11484;50.858;4.384;2024-01-30T03:51:26;6.57;;;4.18;;
22634;SDS011;11484;50.858;4.384;2024-01-30T03:53:52;7.40;;;4.30;;
22634;SDS011;11484;50.858;4.384;2024-01-30T03:56:17;7.47;;;4.15;;
22634;SDS011;11484;50.858;4.384;2024-01-30T03:58:43;8.10;;;4.00;;
22634;SDS011;11484;50.858;4.384;2024-01-30T04:01:13;7.18;;;4.60;;
22634;SDS011;11484;50.858;4.384;2024-01-30T04:03:39;9.32;;;3.90;;
22634;SDS011;11484;50.858;4.384;2024-01-30T04:06:05;6.75;;;4.28;;
22634;SDS011;11484;50.858;4.384;2024-01-30T04:08:31;8.38;;;4.80;;
22634;SDS011;11484;50.858;4.384;2024-01-30T04:10:57;6.57;;;4.03;;
22634;SDS011;11484;50.858;4.384;2024-01-30T04:13:23;6.82;;;4.75;;
22634;SDS011;11484;50.858;4.384;2024-01-30T04:15:48;5.47;;;4.18;;
22634;SDS011;11484;50.858;4.384;2024-01-30T04:18:14;7.28;;;4.57;;
22634;SDS011;11484;50.858;4.384;2024-01-30T04:20:40;5.47;;;4.05;;
22634;SDS011;11484;50.858;4.384;2024-01-30T04:23:05;7.35;;;4.18;;
22634;SDS011;11484;50.858;4.384;2024-01-30T04:25:31;6.72;;;4.78;;
22634;SDS011;11484;50.858;4.384;2024-01-30T04:27:57;6.05;;;4.38;;
22634;SDS011;11484;50.858;4.384;2024-01-30T04:30:22;10.30;;;4.55;;
22634;SDS011;11484;50.858;4.384;2024-01-30T04:32:48;7.30;;;4.70;;
22634;SDS011;11484;50.858;4.384;2024-01-30T04:35:15;7.00;;;4.50;;
22634;SDS011;11484;50.858;4.384;2024-01-30T04:37:41;5.25;;;4.20;;
22634;SDS011;11484;50.858;4.384;2024-01-30T04:40:07;8.23;;;5.00;;
22634;SDS011;11484;50.858;4.384;2024-01-30T04:42:33;9.38;;;4.70;;
22634;SDS011;11484;50.858;4.384;2024-01-30T04:44:58;11.90;;;5.00;;
22634;SDS011;11484;50.858;4.384;2024-01-30T04:47:24;6.65;;;4.75;;
22634;SDS011;11484;50.858;4.384;2024-01-30T04:49:51;7.88;;;4.93;;
22634;SDS011;11484;50.858;4.384;2024-01-30T04:52:16;7.85;;;4.60;;
22634;SDS011;11484;50.858;4.384;2024-01-30T04:54:42;8.68;;;5.10;;
22634;SDS011;11484;50.858;4.384;2024-01-30T04:57:08;9.18;;;4.82;;
22634;SDS011;11484;50.858;4.384;2024-01-30T04:59:37;8.88;;;4.97;;
22634;SDS011;11484;50.858;4.384;2024-01-30T05:02:02;7.15;;;4.18;;
22634;SDS011;11484;50.858;4.384;2024-01-30T05:04:28;7.70;;;4.68;;
22634;SDS011;11484;50.858;4.384;2024-01-30T05:06:54;9.73;;;4.80;;
22634;SDS011;11484;50.858;4.384;2024-01-30T05:09:19;9.85;;;5.35;;
22634;SDS011;11484;50.858;4.384;2024-01-30T05:11:45;9.55;;;4.78;;
22634;SDS011;11484;50.858;4.384;2024-01-30T05:14:11;7.00;;;5.13;;
22634;SDS011;11484;50.858;4.384;2024-01-30T05:16:37;9.60;;;4.72;;
22634;SDS011;11484;50.858;4.384;2024-01-30T05:19:02;8.23;;;4.55;;
22634;SDS011;11484;50.858;4.384;2024-01-30T05:21:28;7.05;;;4.25;;
22634;SDS011;11484;50.858;4.384;2024-01-30T05:23:54;6.72;;;4.40;;
22634;SDS011;11484;50.858;4.384;2024-01-30T05:26:20;10.85;;;4.47;;
22634;SDS011;11484;50.858;4.384;2024-01-30T05:28:47;7.32;;;4.95;;
22634;SDS011;11484;50.858;4.384;2024-01-30T05:31:13;7.30;;;4.03;;
22634;SDS011;11484;50.858;4.384;2024-01-30T05:33:40;7.82;;;4.55;;
22634;SDS011;11484;50.858;4.384;2024-01-30T05:36:06;9.35;;;5.05;;
22634;SDS011;11484;50.858;4.384;2024-01-30T05:38:31;7.75;;;5.15;;
22634;SDS011;11484;50.858;4.384;2024-01-30T05:40:57;7.00;;;4.28;;
22634;SDS011;11484;50.858;4.384;2024-01-30T05:43:23;6.38;;;4.68;;
22634;SDS011;11484;50.858;4.384;2024-01-30T05:45:49;6.53;;;4.53;;
22634;SDS011;11484;50.858;4.384;2024-01-30T05:48:18;8.75;;;4.88;;
22634;SDS011;11484;50.858;4.384;2024-01-30T05:50:44;8.80;;;4.97;;
22634;SDS011;11484;50.858;4.384;2024-01-30T05:53:10;7.57;;;5.03;;
22634;SDS011;11484;50.858;4.384;2024-01-30T05:55:36;8.35;;;4.65;;
22634;SDS011;11484;50.858;4.384;2024-01-30T05:58:02;6.90;;;4.35;;
22634;SDS011;11484;50.858;4.384;2024-01-30T06:00:28;9.05;;;4.80;;
22634;SDS011;11484;50.858;4.384;2024-01-30T06:02:53;7.45;;;4.63;;
22634;SDS011;11484;50.858;4.384;2024-01-30T06:05:19;7.32;;;4.50;;
22634;SDS011;11484;50.858;4.384;2024-01-30T06:07:44;8.13;;;4.60;;
22634;SDS011;11484;50.858;4.384;2024-01-30T06:10:10;10.18;;;5.03;;
22634;SDS011;11484;50.858;4.384;2024-01-30T06:12:36;9.55;;;5.50;;
22634;SDS011;11484;50.858;4.384;2024-01-30T06:15:02;9.02;;;4.85;;
22634;SDS011;11484;50.858;4.384;2024-01-30T06:17:29;7.38;;;4.95;;
22634;SDS011;11484;50.858;4.384;2024-01-30T06:19:54;7.88;;;5.10;;
22634;SDS011;11484;50.858;4.384;2024-01-30T06:22:20;9.25;;;4.93;;
22634;SDS011;11484;50.858;4.384;2024-01-30T06:24:46;8.98;;;5.07;;
22634;SDS011;11484;50.858;4.384;2024-01-30T06:27:13;8.88;;;4.78;;
22634;SDS011;11484;50.858;4.384;2024-01-30T06:29:40;11.20;;;5.00;;
22634;SDS011;11484;50.858;4.384;2024-01-30T06:32:07;5.95;;;4.68;;
22634;SDS011;11484;50.858;4.384;2024-01-30T06:34:33;10.73;;;5.13;;
22634;SDS011;11484;50.858;4.384;2024-01-30T06:36:58;8.30;;;5.38;;
22634;SDS011;11484;50.858;4.384;2024-01-30T06:39:24;10.52;;;5.38;;
22634;SDS011;11484;50.858;4.384;2024-01-30T06:41:51;7.78;;;5.47;;
22634;SDS011;11484;50.858;4.384;2024-01-30T06:44:17;7.45;;;5.05;;
22634;SDS011;11484;50.858;4.384;2024-01-30T06:46:42;8.65;;;5.30;;
22634;SDS011;11484;50.858;4.384;2024-01-30T06:49:08;8.73;;;5.82;;
22634;SDS011;11484;50.858;4.384;2024-01-30T06:51:34;13.15;;;6.47;;
22634;SDS011;11484;50.858;4.384;2024-01-30T06:53:59;9.45;;;5.60;;
22634;SDS011;11484;50.858;4.384;2024-01-30T06:56:25;7.43;;;4.78;;
22634;SDS011;11484;50.858;4.384;2024-01-30T06:58:51;12.85;;;5.60;;
22634;SDS011;11484;50.858;4.384;2024-01-30T07:01:16;10.35;;;5.68;;
22634;SDS011;11484;50.858;4.384;2024-01-30T07:03:42;14.13;;;6.28;;
22634;SDS011;11484;50.858;4.384;2024-01-30T07:06:08;11.70;;;5.75;;
22634;SDS011;11484;50.858;4.384;2024-01-30T07:08:35;9.70;;;5.85;;
22634;SDS011;11484;50.858;4.384;2024-01-30T07:11:05;9.88;;;5.78;;
22634;SDS011;11484;50.858;4.384;2024-01-30T07:13:32;10.32;;;6.20;;
22634;SDS011;11484;50.858;4.384;2024-01-30T07:15:59;11.05;;;5.97;;
22634;SDS011;11484;50.858;4.384;2024-01-30T07:18:25;11.50;;;5.53;;
22634;SDS011;11484;50.858;4.384;2024-01-30T07:20:52;10.80;;;5.28;;
22634;SDS011;11484;50.858;4.384;2024-01-30T07:23:18;10.38;;;5.70;;
22634;SDS011;11484;50.858;4.384;2024-01-30T07:25:43;12.52;;;5.78;;
22634;SDS011;11484;50.858;4.384;2024-01-30T07:28:18;12.38;;;6.05;;
22634;SDS011;11484;50.858;4.384;2024-01-30T07:30:44;10.15;;;5.50;;
22634;SDS011;11484;50.858;4.384;2024-01-30T07:33:10;13.02;;;5.47;;
22634;SDS011;11484;50.858;4.384;2024-01-30T07:35:36;10.05;;;5.57;;
22634;SDS011;11484;50.858;4.384;2024-01-30T07:38:01;12.02;;;5.90;;
22634;SDS011;11484;50.858;4.384;2024-01-30T07:40:27;13.77;;;5.82;;
22634;SDS011;11484;50.858;4.384;2024-01-30T07:42:54;11.25;;;5.93;;
22634;SDS011;11484;50.858;4.384;2024-01-30T07:45:20;12.10;;;4.75;;
22634;SDS011;11484;50.858;4.384;2024-01-30T07:47:50;12.90;;;5.93;;
22634;SDS011;11484;50.858;4.384;2024-01-30T07:50:16;10.50;;;5.57;;
22634;SDS011;11484;50.858;4.384;2024-01-30T07:52:42;9.13;;;5.28;;
22634;SDS011;11484;50.858;4.384;2024-01-30T07:55:08;12.50;;;6.22;;
22634;SDS011;11484;50.858;4.384;2024-01-30T07:57:34;10.88;;;5.55;;
22634;SDS011;11484;50.858;4.384;2024-01-30T08:00:00;12.25;;;6.32;;
22634;SDS011;11484;50.858;4.384;2024-01-30T08:02:27;12.85;;;5.53;;
22634;SDS011;11484;50.858;4.384;2024-01-30T08:04:53;9.75;;;5.70;;
22634;SDS011;11484;50.858;4.384;2024-01-30T08:07:19;13.80;;;6.47;;
22634;SDS011;11484;50.858;4.384;2024-01-30T08:09:47;11.75;;;6.40;;
22634;SDS011;11484;50.858;4.384;2024-01-30T08:12:13;13.48;;;6.32;;
22634;SDS011;11484;50.858;4.384;2024-01-30T08:14:38;13.50;;;6.75;;
22634;SDS011;11484;50.858;4.384;2024-01-30T08:17:06;12.98;;;6.28;;
22634;SDS011;11484;50.858;4.384;2024-01-30T08:19:32;11.18;;;6.00;;
22634;SDS011;11484;50.858;4.384;2024-01-30T08:21:58;13.43;;;6.35;;
22634;SDS011;11484;50.858;4.384;2024-01-30T08:24:24;20.05;;;7.20;;
22634;SDS011;11484;50.858;4.384;2024-01-30T08:26:50;10.68;;;6.20;;
22634;SDS011;11484;50.858;4.384;2024-01-30T08:29:16;14.25;;;6.45;;
22634;SDS011;11484;50.858;4.384;2024-01-30T08:31:41;13.75;;;7.18;;
22634;SDS011;11484;50.858;4.384;2024-01-30T08:34:07;13.27;;;6.55;;
22634;SDS011;11484;50.858;4.384;2024-01-30T08:36:33;11.27;;;6.25;;
22634;SDS011;11484;50.858;4.384;2024-01-30T08:38:59;12.77;;;6.45;;
22634;SDS011;11484;50.858;4.384;2024-01-30T08:41:25;9.13;;;6.18;;
22634;SDS011;11484;50.858;4.384;2024-01-30T08:43:51;14.07;;;7.15;;
22634;SDS011;11484;50.858;4.384;2024-01-30T08:46:18;12.63;;;6.30;;
22634;SDS011;11484;50.858;4.384;2024-01-30T08:48:43;15.27;;;6.70;;
22634;SDS011;11484;50.858;4.384;2024-01-30T08:51:09;16.08;;;6.50;;
22634;SDS011;11484;50.858;4.384;2024-01-30T08:53:36;13.90;;;6.60;;
22634;SDS011;11484;50.858;4.384;2024-01-30T08:56:02;13.02;;;7.43;;
22634;SDS011;11484;50.858;4.384;2024-01-30T08:58:28;13.68;;;6.55;;
22634;SDS011;11484;50.858;4.384;2024-01-30T09:00:54;16.65;;;7.20;;
22634;SDS011;11484;50.858;4.384;2024-01-30T09:03:20;16.55;;;7.35;;
22634;SDS011;11484;50.858;4.384;2024-01-30T09:05:45;10.43;;;6.43;;
22634;SDS011;11484;50.858;4.384;2024-01-30T09:08:11;12.20;;;6.15;;
22634;SDS011;11484;50.858;4.384;2024-01-30T09:10:37;12.05;;;6.45;;
22634;SDS011;11484;50.858;4.384;2024-01-30T09:13:02;11.45;;;6.40;;
22634;SDS011;11484;50.858;4.384;2024-01-30T09:15:28;12.40;;;5.90;;
22634;SDS011;11484;50.858;4.384;2024-01-30T09:17:54;12.85;;;6.40;;
22634;SDS011;11484;50.858;4.384;2024-01-30T09:20:20;13.77;;;6.85;;
22634;SDS011;11484;50.858;4.384;2024-01-30T09:22:47;15.90;;;7.07;;
22634;SDS011;11484;50.858;4.384;2024-01-30T09:25:14;13.82;;;6.72;;
22634;SDS011;11484;50.858;4.384;2024-01-30T09:27:40;13.68;;;6.72;;
22634;SDS011;11484;50.858;4.384;2024-01-30T09:30:06;14.70;;;6.15;;
22634;SDS011;11484;50.858;4.384;2024-01-30T09:32:32;18.60;;;7.13;;
22634;SDS011;11484;50.858;4.384;2024-01-30T09:34:58;12.75;;;7.00;;
22634;SDS011;11484;50.858;4.384;2024-01-30T09:37:24;14.35;;;6.75;;
22634;SDS011;11484;50.858;4.384;2024-01-30T09:39:50;14.23;;;7.15;;
22634;SDS011;11484;50.858;4.384;2024-01-30T09:44:58;11.23;;;6.93;;
22634;SDS011;11484;50.858;4.384;2024-01-30T09:47:24;18.48;;;7.82;;
22634;SDS011;11484;50.858;4.384;2024-01-30T09:49:51;14.85;;;8.15;;
22634;SDS011;11484;50.858;4.384;2024-01-30T09:52:17;17.35;;;8.55;;
22634;SDS011;11484;50.858;4.384;2024-01-30T09:54:43;19.35;;;8.38;;
22634;SDS011;11484;50.858;4.384;2024-01-30T09:57:11;18.30;;;7.95;;
22634;SDS011;11484;50.858;4.384;2024-01-30T09:59:37;20.10;;;8.88;;
22634;SDS011;11484;50.858;4.384;2024-01-30T10:02:03;16.02;;;8.85;;
22634;SDS011;11484;50.858;4.384;2024-01-30T10:04:29;15.60;;;7.60;;
22634;SDS011;11484;50.858;4.384;2024-01-30T10:06:55;16.15;;;8.13;;
22634;SDS011;11484;50.858;4.384;2024-01-30T10:09:23;21.27;;;8.73;;
22634;SDS011;11484;50.858;4.384;2024-01-30T10:11:50;15.48;;;7.70;;
22634;SDS011;11484;50.858;4.384;2024-01-30T10:14:16;15.88;;;8.45;;
22634;SDS011;11484;50.858;4.384;2024-01-30T10:16:42;15.02;;;8.43;;
22634;SDS011;11484;50.858;4.384;2024-01-30T10:19:10;17.27;;;8.60;;
22634;SDS011;11484;50.858;4.384;2024-01-30T10:21:36;15.93;;;8.70;;
22634;SDS011;11484;50.858;4.384;2024-01-30T10:24:02;16.95;;;8.10;;
22634;SDS011;11484;50.858;4.384;2024-01-30T10:26:27;18.33;;;8.85;;
22634;SDS011;11484;50.858;4.384;2024-01-30T10:28:58;19.48;;;9.57;;
22634;SDS011;11484;50.858;4.384;2024-01-30T10:31:24;16.45;;;9.23;;
22634;SDS011;11484;50.858;4.384;2024-01-30T10:33:50;19.73;;;9.07;;
22634;SDS011;11484;50.858;4.384;2024-01-30T10:36:16;14.77;;;9.00;;
22634;SDS011;11484;50.858;4.384;2024-01-30T10:38:43;16.60;;;8.55;;
22634;SDS011;11484;50.858;4.384;2024-01-30T10:41:11;16.35;;;8.48;;
22634;SDS011;11484;50.858;4.384;2024-01-30T10:43:41;16.48;;;9.27;;
22634;SDS011;11484;50.858;4.384;2024-01-30T10:46:11;18.38;;;8.48;;
22634;SDS011;11484;50.858;4.384;2024-01-30T10:48:42;15.07;;;8.30;;
22634;SDS011;11484;50.858;4.384;2024-01-30T10:51:10;14.65;;;8.05;;
22634;SDS011;11484;50.858;4.384;2024-01-30T10:53:37;23.45;;;10.65;;
22634;SDS011;11484;50.858;4.384;2024-01-30T10:56:04;16.88;;;8.35;;
22634;SDS011;11484;50.858;4.384;2024-01-30T10:58:31;11.10;;;6.90;;
22634;SDS011;11484;50.858;4.384;2024-01-30T11:00:56;14.18;;;7.05;;
22634;SDS011;11484;50.858;4.384;2024-01-30T11:03:24;16.13;;;9.18;;
22634;SDS011;11484;50.858;4.384;2024-01-30T11:05:50;12.32;;;7.13;;
22634;SDS011;11484;50.858;4.384;2024-01-30T11:08:23;14.63;;;6.93;;
22634;SDS011;11484;50.858;4.384;2024-01-30T11:10:57;14.05;;;6.63;;
22634;SDS011;11484;50.858;4.384;2024-01-30T11:13:29;10.70;;;5.22;;
22634;SDS011;11484;50.858;4.384;2024-01-30T11:15:59;11.18;;;6.35;;
22634;SDS011;11484;50.858;4.384;2024-01-30T11:18:29;15.02;;;6.75;;
22634;SDS011;11484;50.858;4.384;2024-01-30T11:20:56;10.27;;;5.13;;
22634;SDS011;11484;50.858;4.384;2024-01-30T11:23:22;10.48;;;5.32;;
22634;SDS011;11484;50.858;4.384;2024-01-30T11:25:48;15.57;;;5.53;;
22634;SDS011;11484;50.858;4.384;2024-01-30T11:28:14;8.63;;;3.80;;
22634;SDS011;11484;50.858;4.384;2024-01-30T11:30:43;8.45;;;4.25;;
22634;SDS011;11484;50.858;4.384;2024-01-30T11:33:11;16.23;;;6.15;;
22634;SDS011;11484;50.858;4.384;2024-01-30T11:35:38;7.32;;;3.30;;
22634;SDS011;11484;50.858;4.384;2024-01-30T11:38:06;8.05;;;2.90;;
22634;SDS011;11484;50.858;4.384;2024-01-30T11:40:33;14.25;;;4.80;;
22634;SDS011;11484;50.858;4.384;2024-01-30T11:43:00;6.07;;;2.35;;
22634;SDS011;11484;50.858;4.384;2024-01-30T11:45:28;7.38;;;3.28;;
22634;SDS011;11484;50.858;4.384;2024-01-30T11:47:54;5.88;;;2.10;;
22634;SDS011;11484;50.858;4.384;2024-01-30T11:50:20;7.75;;;2.20;;
22634;SDS011;11484;50.858;4.384;2024-01-30T11:52:47;11.85;;;3.88;;
22634;SDS011;11484;50.858;4.384;2024-01-30T11:55:14;5.93;;;2.72;;
22634;SDS011;11484;50.858;4.384;2024-01-30T11:57:40;3.83;;;1.70;;
22634;SDS011;11484;50.858;4.384;2024-01-30T12:00:06;10.30;;;2.00;;
22634;SDS011;11484;50.858;4.384;2024-01-30T12:02:39;5.65;;;2.03;;
22634;SDS011;11484;50.858;4.384;2024-01-30T12:05:07;4.53;;;1.45;;
22634;SDS011;11484;50.858;4.384;2024-01-30T12:07:34;6.05;;;1.50;;
22634;SDS011;11484;50.858;4.384;2024-01-30T12:09:59;7.78;;;2.00;;
22634;SDS011;11484;50.858;4.384;2024-01-30T12:12:26;3.95;;;1.48;;
22634;SDS011;11484;50.858;4.384;2024-01-30T12:14:53;6.00;;;1.63;;
22634;SDS011;11484;50.858;4.384;2024-01-30T12:17:30;7.65;;;1.77;;
22634;SDS011;11484;50.858;4.384;2024-01-30T12:20:30;7.05;;;1.40;;
22634;SDS011;11484;50.858;4.384;2024-01-30T12:22:49;8.98;;;2.10;;
22634;SDS011;11484;50.858;4.384;2024-01-30T12:25:18;6.20;;;2.05;;
22634;SDS011;11484;50.858;4.384;2024-01-30T12:27:46;9.98;;;2.03;;
22634;SDS011;11484;50.858;4.384;2024-01-30T12:32:43;6.20;;;1.30;;
22634;SDS011;11484;50.858;4.384;2024-01-30T12:35:11;1.80;;;1.13;;
22634;SDS011;11484;50.858;4.384;2024-01-30T12:37:38;5.40;;;1.67;;
22634;SDS011;11484;50.858;4.384;2024-01-30T12:40:04;6.53;;;1.10;;
22634;SDS011;11484;50.858;4.384;2024-01-30T12:42:31;6.07;;;1.92;;
22634;SDS011;11484;50.858;4.384;2024-01-30T12:45:00;4.97;;;1.38;;
22634;SDS011;11484;50.858;4.384;2024-01-30T12:47:28;9.50;;;1.90;;
22634;SDS011;11484;50.858;4.384;2024-01-30T12:49:53;9.98;;;1.40;;
22634;SDS011;11484;50.858;4.384;2024-01-30T12:52:21;7.43;;;1.30;;
22634;SDS011;11484;50.858;4.384;2024-01-30T12:54:48;3.83;;;1.10;;
22634;SDS011;11484;50.858;4.384;2024-01-30T12:57:14;6.32;;;2.17;;
22634;SDS011;11484;50.858;4.384;2024-01-30T12:59:41;5.68;;;1.70;;
22634;SDS011;11484;50.858;4.384;2024-01-30T13:02:08;7.50;;;1.30;;
22634;SDS011;11484;50.858;4.384;2024-01-30T13:04:34;4.30;;;1.67;;
22634;SDS011;11484;50.858;4.384;2024-01-30T13:07:00;4.63;;;1.50;;
22634;SDS011;11484;50.858;4.384;2024-01-30T13:09:27;4.40;;;1.30;;
22634;SDS011;11484;50.858;4.384;2024-01-30T13:11:54;11.25;;;1.70;;
22634;SDS011;11484;50.858;4.384;2024-01-30T13:14:20;5.72;;;1.98;;
22634;SDS011;11484;50.858;4.384;2024-01-30T13:16:46;7.60;;;1.70;;
22634;SDS011;11484;50.858;4.384;2024-01-30T13:19:12;4.13;;;1.17;;
22634;SDS011;11484;50.858;4.384;2024-01-30T13:21:37;5.55;;;1.77;;
22634;SDS011;11484;50.858;4.384;2024-01-30T13:24:04;5.00;;;1.70;;
22634;SDS011;11484;50.858;4.384;2024-01-30T13:26:31;7.57;;;1.80;;
22634;SDS011;11484;50.858;4.384;2024-01-30T13:28:57;8.30;;;1.60;;
22634;SDS011;11484;50.858;4.384;2024-01-30T13:31:23;8.02;;;2.00;;
22634;SDS011;11484;50.858;4.384;2024-01-30T13:33:50;5.28;;;1.30;;
22634;SDS011;11484;50.858;4.384;2024-01-30T13:36:17;14.35;;;2.75;;
22634;SDS011;11484;50.858;4.384;2024-01-30T13:39:03;5.25;;;1.67;;
22634;SDS011;11484;50.858;4.384;2024-01-30T13:41:32;4.25;;;1.83;;
22634;SDS011;11484;50.858;4.384;2024-01-30T13:43:58;3.85;;;1.35;;
22634;SDS011;11484;50.858;4.384;2024-01-30T13:46:23;12.60;;;2.67;;
22634;SDS011;11484;50.858;4.384;2024-01-30T13:48:50;5.15;;;1.52;;
22634;SDS011;11484;50.858;4.384;2024-01-30T13:51:17;5.63;;;1.75;;
22634;SDS011;11484;50.858;4.384;2024-01-30T13:53:43;5.30;;;1.50;;
22634;SDS011;11484;50.858;4.384;2024-01-30T13:56:09;5.30;;;1.55;;
22634;SDS011;11484;50.858;4.384;2024-01-30T13:58:35;7.68;;;1.42;;
22634;SDS011;11484;50.858;4.384;2024-01-30T14:01:01;6.70;;;2.00;;
22634;SDS011;11484;50.858;4.384;2024-01-30T14:03:27;6.85;;;4.13;;
22634;SDS011;11484;50.858;4.384;2024-01-30T14:05:53;6.32;;;1.52;;
22634;SDS011;11484;50.858;4.384;2024-01-30T14:08:19;3.92;;;1.30;;
22634;SDS011;11484;50.858;4.384;2024-01-30T14:10:48;5.40;;;1.63;;
22634;SDS011;11484;50.858;4.384;2024-01-30T14:13:14;3.80;;;1.20;;
22634;SDS011;11484;50.858;4.384;2024-01-30T14:15:40;4.10;;;0.95;;
22634;SDS011;11484;50.858;4.384;2024-01-30T14:18:06;11.88;;;1.80;;
22634;SDS011;11484;50.858;4.384;2024-01-30T14:20:34;4.22;;;1.52;;
22634;SDS011;11484;50.858;4.384;2024-01-30T14:22:59;5.43;;;2.10;;
22634;SDS011;11484;50.858;4.384;2024-01-30T14:25:25;4.63;;;1.48;;
22634;SDS011;11484;50.858;4.384;2024-01-30T14:27:51;2.80;;;1.45;;
22634;SDS011;11484;50.858;4.384;2024-01-30T14:30:17;4.53;;;1.42;;
22634;SDS011;11484;50.858;4.384;2024-01-30T14:32:43;4.03;;;1.90;;
22634;SDS011;11484;50.858;4.384;2024-01-30T14:35:10;5.97;;;1.50;;
22634;SDS011;11484;50.858;4.384;2024-01-30T14:37:37;5.30;;;2.15;;
22634;SDS011;11484;50.858;4.384;2024-01-30T14:40:03;3.80;;;1.40;;
22634;SDS011;11484;50.858;4.384;2024-01-30T14:42:32;5.10;;;2.17;;
22634;SDS011;11484;50.858;4.384;2024-01-30T14:44:58;6.18;;;1.92;;